Joe Bobzien — WDC6545 — position and weather

sailwx.info

Track history (hours):
 
Tides and Currents Weather Stations Pressure Air Temp Water Temp Dewpoint Dewpoint Depression Visibility Wind Speed Wind Dir Waves Ship Positions

Joe Bobzien

Owner: American Commercial Lines LLC, Jeffersonville, IN. More information available from US FCC via Universal Licensing System and Coast Guard Vessel Documentation Center.

Last reported at 2017-Oct-09 22:13 UTC. Time now 2017-Dec-15 08:09 UTC.
Position N 32°40' W 091°07'.
Warning: this ship's position is months out of date.

Length 54 m; draft 2.9 m.

Type: Tow > 200 m length. MMSI: 367057730.

Date/timePositionNaut miles runAvg speedWind from/ knotsBaromVisibWave heightAir tempDewpointWater temp
2017-Oct-09 22:13N 32°40' W 091°07'1 5.3
2017-Oct-09 22:00N 32°40' W 091°08'3 5.3
2017-Oct-09 21:30N 32°37' W 091°09'0 0.3
2017-Oct-09 21:00N 32°37' W 091°09'0 0.0
2017-Oct-09 20:30N 32°37' W 091°09'0 0.0
2017-Oct-09 20:00N 32°37' W 091°09'0 0.0
2017-Oct-09 19:30N 32°37' W 091°09'1 2.6
2017-Oct-09 19:00N 32°36' W 091°09'0 0.0
2017-Oct-09 18:30N 32°36' W 091°09'2 4.3
2017-Oct-09 17:59N 32°34' W 091°06'3 5.3
2017-Oct-09 17:30N 32°32' W 091°06'3 6.4
2017-Oct-09 17:00N 32°29' W 091°07'3 6.4
2017-Oct-09 16:30N 32°27' W 091°04'3 6.2
2017-Oct-09 16:00N 32°26' W 091°01'2 4.9
2017-Oct-09 15:30N 32°23' W 090°60'2 4.9
2017-Oct-09 15:00N 32°21' W 090°59'3 6.3
2017-Oct-09 14:30N 32°21' W 090°55'2 4.5
2017-Oct-09 14:00N 32°18' W 090°55'0 0.8
2017-Oct-09 13:30N 32°18' W 090°55'0 0.0
2017-Oct-09 13:00N 32°18' W 090°55'0 0.1
2017-Oct-09 12:30N 32°18' W 090°55'0 0.1
2017-Oct-09 12:00N 32°18' W 090°55'0 0.0
2017-Oct-09 11:30N 32°18' W 090°55'1 2.3
2017-Oct-09 11:00N 32°17' W 090°56'1 1.3
2017-Oct-09 10:30N 32°17' W 090°57'0 0.0
2017-Oct-09 10:00N 32°17' W 090°57'0 1.0
2017-Oct-09 09:30N 32°17' W 090°57'2 5.0
2017-Oct-09 09:00N 32°15' W 090°59'3 5.6
2017-Oct-09 08:30N 32°12' W 090°59'3 5.4
2017-Oct-09 08:00N 32°09' W 091°00'2 4.2
2017-Oct-09 07:30N 32°07' W 091°01'4 5.7
2017-Oct-09 06:52N 32°08' W 091°05'2 4.3
2017-Oct-09 06:30N 32°07' W 091°06'4 5.5
2017-Oct-09 05:43N 32°03' W 091°03'1 6.1
2017-Oct-09 05:30N 32°02' W 091°04'1 0.7
2017-Oct-09 04:15N 32°01' W 091°05'0 0.2
2017-Oct-09 04:00N 32°01' W 091°05'  
2017-Oct-02 23:02N 31°60' W 091°05'0 7.0
2017-Oct-02 22:58N 32°00' W 091°05'6 5.6
2017-Oct-02 21:56N 32°06' W 091°06'2 4.1
2017-Oct-02 21:30N 32°08' W 091°06'3 5.0
2017-Oct-02 21:00N 32°08' W 091°04'3 6.2
2017-Oct-02 20:30N 32°09' W 091°00'4 7.8
2017-Oct-02 20:00N 32°13' W 090°59'4 7.7
2017-Oct-02 19:30N 32°16' W 090°57'4 8.0
2017-Oct-02 19:00N 32°19' W 090°54'3 5.4
2017-Oct-02 18:30N 32°21' W 090°57'0 0.9
2017-Oct-02 18:00N 32°21' W 090°57'0 0.0
2017-Oct-02 17:30N 32°21' W 090°57'0 0.0
2017-Oct-02 17:00N 32°21' W 090°57'0 0.0
2017-Oct-02 16:30N 32°21' W 090°57'0 0.5
2017-Oct-02 16:00N 32°21' W 090°57'2 4.7
2017-Oct-02 15:30N 32°22' W 091°00'4 7.0
2017-Oct-02 15:00N 32°25' W 090°60'4 7.0
2017-Oct-02 14:30N 32°26' W 091°04'4 7.0
2017-Oct-02 14:00N 32°29' W 091°07'4 7.0
2017-Oct-02 13:30N 32°32' W 091°06'3 6.9
2017-Oct-02 13:00N 32°35' W 091°08'5 7.1
2017-Oct-02 12:20N 32°40' W 091°08'  
Track history (hours):
 
Tides and Currents Weather Stations Pressure Air Temp Water Temp Dewpoint Dewpoint Depression Visibility Wind Speed Wind Dir Waves Ship Positions

Joe Bobzien

Owner: American Commercial Lines LLC, Jeffersonville, IN. More information available from US FCC via Universal Licensing System and Coast Guard Vessel Documentation Center.

Last reported at 2017-Oct-09 22:13 UTC. Time now 2017-Dec-15 08:09 UTC.
Position N 32°40' W 091°07'.
Warning: this ship's position is months out of date.

Length 54 m; draft 2.9 m.

Type: Tow > 200 m length. MMSI: 367057730.

Date/timePositionNaut miles runAvg speedWind from/ knotsBaromVisibWave heightAir tempDewpointWater temp
2017-Oct-09 22:13N 32°40' W 091°07'1 5.3
2017-Oct-09 22:00N 32°40' W 091°08'3 5.3
2017-Oct-09 21:30N 32°37' W 091°09'0 0.3
2017-Oct-09 21:00N 32°37' W 091°09'0 0.0
2017-Oct-09 20:30N 32°37' W 091°09'0 0.0
2017-Oct-09 20:00N 32°37' W 091°09'0 0.0
2017-Oct-09 19:30N 32°37' W 091°09'1 2.6
2017-Oct-09 19:00N 32°36' W 091°09'0 0.0
2017-Oct-09 18:30N 32°36' W 091°09'2 4.3
2017-Oct-09 17:59N 32°34' W 091°06'3 5.3
2017-Oct-09 17:30N 32°32' W 091°06'3 6.4
2017-Oct-09 17:00N 32°29' W 091°07'3 6.4
2017-Oct-09 16:30N 32°27' W 091°04'3 6.2
2017-Oct-09 16:00N 32°26' W 091°01'2 4.9
2017-Oct-09 15:30N 32°23' W 090°60'2 4.9
2017-Oct-09 15:00N 32°21' W 090°59'3 6.3
2017-Oct-09 14:30N 32°21' W 090°55'2 4.5
2017-Oct-09 14:00N 32°18' W 090°55'0 0.8
2017-Oct-09 13:30N 32°18' W 090°55'0 0.0
2017-Oct-09 13:00N 32°18' W 090°55'0 0.1
2017-Oct-09 12:30N 32°18' W 090°55'0 0.1
2017-Oct-09 12:00N 32°18' W 090°55'0 0.0
2017-Oct-09 11:30N 32°18' W 090°55'1 2.3
2017-Oct-09 11:00N 32°17' W 090°56'1 1.3
2017-Oct-09 10:30N 32°17' W 090°57'0 0.0
2017-Oct-09 10:00N 32°17' W 090°57'0 1.0
2017-Oct-09 09:30N 32°17' W 090°57'2 5.0
2017-Oct-09 09:00N 32°15' W 090°59'3 5.6
2017-Oct-09 08:30N 32°12' W 090°59'3 5.4
2017-Oct-09 08:00N 32°09' W 091°00'2 4.2
2017-Oct-09 07:30N 32°07' W 091°01'4 5.7
2017-Oct-09 06:52N 32°08' W 091°05'2 4.3
2017-Oct-09 06:30N 32°07' W 091°06'4 5.5
2017-Oct-09 05:43N 32°03' W 091°03'1 6.1
2017-Oct-09 05:30N 32°02' W 091°04'1 0.7
2017-Oct-09 04:15N 32°01' W 091°05'0 0.2
2017-Oct-09 04:00N 32°01' W 091°05'  
2017-Oct-02 23:02N 31°60' W 091°05'0 7.0
2017-Oct-02 22:58N 32°00' W 091°05'6 5.6
2017-Oct-02 21:56N 32°06' W 091°06'2 4.1
2017-Oct-02 21:30N 32°08' W 091°06'3 5.0
2017-Oct-02 21:00N 32°08' W 091°04'3 6.2
2017-Oct-02 20:30N 32°09' W 091°00'4 7.8
2017-Oct-02 20:00N 32°13' W 090°59'4 7.7
2017-Oct-02 19:30N 32°16' W 090°57'4 8.0
2017-Oct-02 19:00N 32°19' W 090°54'3 5.4
2017-Oct-02 18:30N 32°21' W 090°57'0 0.9
2017-Oct-02 18:00N 32°21' W 090°57'0 0.0
2017-Oct-02 17:30N 32°21' W 090°57'0 0.0
2017-Oct-02 17:00N 32°21' W 090°57'0 0.0
2017-Oct-02 16:30N 32°21' W 090°57'0 0.5
2017-Oct-02 16:00N 32°21' W 090°57'2 4.7
2017-Oct-02 15:30N 32°22' W 091°00'4 7.0
2017-Oct-02 15:00N 32°25' W 090°60'4 7.0
2017-Oct-02 14:30N 32°26' W 091°04'4 7.0
2017-Oct-02 14:00N 32°29' W 091°07'4 7.0
2017-Oct-02 13:30N 32°32' W 091°06'3 6.9
2017-Oct-02 13:00N 32°35' W 091°08'5 7.1
2017-Oct-02 12:20N 32°40' W 091°08'  

Dump ship's entire track history